sensor_id;sensor_type;location;lat;lon;timestamp;pressure;altitude;pressure_sealevel;temperature;humidity
28510;BME280;15723;55.684;37.928;2023-02-23T00:01:36;100017.38;;;-12.27;67.08
28510;BME280;15723;55.684;37.928;2023-02-23T00:04:02;100011.38;;;-12.25;66.82
28510;BME280;15723;55.684;37.928;2023-02-23T00:06:28;100013.09;;;-12.25;66.81
28510;BME280;15723;55.684;37.928;2023-02-23T00:08:55;100023.84;;;-12.15;66.54
28510;BME280;15723;55.684;37.928;2023-02-23T00:11:22;100020.78;;;-12.30;67.12
28510;BME280;15723;55.684;37.928;2023-02-23T00:13:49;100026.09;;;-12.27;66.85
28510;BME280;15723;55.684;37.928;2023-02-23T00:16:16;100026.44;;;-12.16;66.66
28510;BME280;15723;55.684;37.928;2023-02-23T00:18:52;100017.44;;;-12.26;66.97
28510;BME280;15723;55.684;37.928;2023-02-23T00:21:19;100022.72;;;-12.24;66.98
28510;BME280;15723;55.684;37.928;2023-02-23T00:26:14;100036.13;;;-12.42;67.15
28510;BME280;15723;55.684;37.928;2023-02-23T00:28:41;100040.03;;;-12.28;67.04
28510;BME280;15723;55.684;37.928;2023-02-23T00:31:08;100039.81;;;-12.36;67.19
28510;BME280;15723;55.684;37.928;2023-02-23T00:33:36;100034.28;;;-12.46;67.42
28510;BME280;15723;55.684;37.928;2023-02-23T00:36:03;100049.72;;;-12.55;67.71
28510;BME280;15723;55.684;37.928;2023-02-23T00:38:29;100041.28;;;-12.45;67.52
28510;BME280;15723;55.684;37.928;2023-02-23T00:41:07;100040.78;;;-12.32;67.44
28510;BME280;15723;55.684;37.928;2023-02-23T00:43:37;100039.78;;;-12.37;67.45
28510;BME280;15723;55.684;37.928;2023-02-23T00:46:04;100043.09;;;-12.43;67.53
28510;BME280;15723;55.684;37.928;2023-02-23T00:48:31;100044.84;;;-12.43;67.82
28510;BME280;15723;55.684;37.928;2023-02-23T00:50:58;100048.53;;;-12.35;67.47
28510;BME280;15723;55.684;37.928;2023-02-23T00:53:25;100048.34;;;-12.43;67.68
28510;BME280;15723;55.684;37.928;2023-02-23T00:55:52;100052.81;;;-12.39;67.40
28510;BME280;15723;55.684;37.928;2023-02-23T00:58:18;100048.69;;;-12.31;67.96
28510;BME280;15723;55.684;37.928;2023-02-23T01:00:44;100056.97;;;-12.45;67.83
28510;BME280;15723;55.684;37.928;2023-02-23T01:03:10;100048.91;;;-12.53;67.99
28510;BME280;15723;55.684;37.928;2023-02-23T01:05:36;100048.16;;;-12.49;67.89
28510;BME280;15723;55.684;37.928;2023-02-23T01:08:02;100055.91;;;-12.52;68.05
28510;BME280;15723;55.684;37.928;2023-02-23T01:10:30;100053.53;;;-12.44;68.33
28510;BME280;15723;55.684;37.928;2023-02-23T01:12:56;100063.97;;;-12.44;67.87
28510;BME280;15723;55.684;37.928;2023-02-23T01:15:22;100061.28;;;-12.47;67.97
28510;BME280;15723;55.684;37.928;2023-02-23T01:17:48;100068.19;;;-12.49;68.30
28510;BME280;15723;55.684;37.928;2023-02-23T01:20:15;100064.06;;;-12.41;67.66
28510;BME280;15723;55.684;37.928;2023-02-23T01:22:46;100067.44;;;-12.45;68.22
28510;BME280;15723;55.684;37.928;2023-02-23T01:25:13;100074.78;;;-12.62;68.48
28510;BME280;15723;55.684;37.928;2023-02-23T01:27:39;100080.88;;;-12.63;68.70
28510;BME280;15723;55.684;37.928;2023-02-23T01:30:09;100080.22;;;-12.56;68.55
28510;BME280;15723;55.684;37.928;2023-02-23T01:32:36;100082.56;;;-12.35;68.80
28510;BME280;15723;55.684;37.928;2023-02-23T01:35:03;100080.22;;;-12.56;68.92
28510;BME280;15723;55.684;37.928;2023-02-23T01:37:30;100074.31;;;-12.49;68.33
28510;BME280;15723;55.684;37.928;2023-02-23T01:39:56;100069.88;;;-12.51;68.43
28510;BME280;15723;55.684;37.928;2023-02-23T01:42:22;100072.41;;;-12.54;68.57
28510;BME280;15723;55.684;37.928;2023-02-23T01:47:18;100076.31;;;-12.69;68.77
28510;BME280;15723;55.684;37.928;2023-02-23T01:49:45;100081.53;;;-12.69;68.51
28510;BME280;15723;55.684;37.928;2023-02-23T01:52:12;100087.50;;;-12.73;69.05
28510;BME280;15723;55.684;37.928;2023-02-23T01:54:42;100084.41;;;-12.61;68.16
28510;BME280;15723;55.684;37.928;2023-02-23T01:57:15;100091.66;;;-12.79;69.05
28510;BME280;15723;55.684;37.928;2023-02-23T01:59:42;100097.78;;;-12.79;69.25
28510;BME280;15723;55.684;37.928;2023-02-23T02:02:09;100096.59;;;-12.61;68.57
28510;BME280;15723;55.684;37.928;2023-02-23T02:04:38;100097.84;;;-12.77;69.01
28510;BME280;15723;55.684;37.928;2023-02-23T02:07:11;100098.81;;;-12.74;68.71
28510;BME280;15723;55.684;37.928;2023-02-23T02:09:39;100097.59;;;-12.85;69.20
28510;BME280;15723;55.684;37.928;2023-02-23T02:12:21;100103.72;;;-12.84;69.35
28510;BME280;15723;55.684;37.928;2023-02-23T02:14:47;100100.63;;;-12.71;68.85
28510;BME280;15723;55.684;37.928;2023-02-23T02:27:32;100111.66;;;-12.81;69.21
28510;BME280;15723;55.684;37.928;2023-02-23T02:30:15;100105.38;;;-12.86;68.89
28510;BME280;15723;55.684;37.928;2023-02-23T02:40:30;100123.59;;;-12.89;69.34
28510;BME280;15723;55.684;37.928;2023-02-23T02:43:00;100124.38;;;-12.92;69.15
28510;BME280;15723;55.684;37.928;2023-02-23T02:50:43;100124.25;;;-12.97;69.63
28510;BME280;15723;55.684;37.928;2023-02-23T02:53:13;100125.88;;;-13.00;69.39
28510;BME280;15723;55.684;37.928;2023-02-23T02:55:42;100129.66;;;-12.90;69.60
28510;BME280;15723;55.684;37.928;2023-02-23T02:58:09;100124.81;;;-12.78;68.93
28510;BME280;15723;55.684;37.928;2023-02-23T03:00:37;100124.13;;;-12.73;69.34
28510;BME280;15723;55.684;37.928;2023-02-23T03:03:34;100124.28;;;-12.95;69.46
28510;BME280;15723;55.684;37.928;2023-02-23T03:06:20;100122.75;;;-12.88;69.26
28510;BME280;15723;55.684;37.928;2023-02-23T03:09:10;100138.25;;;-12.95;69.77
28510;BME280;15723;55.684;37.928;2023-02-23T03:12:05;100128.78;;;-12.91;69.56
28510;BME280;15723;55.684;37.928;2023-02-23T03:20:59;100136.53;;;-12.94;69.45
28510;BME280;15723;55.684;37.928;2023-02-23T03:27:41;100134.28;;;-13.09;70.07
28510;BME280;15723;55.684;37.928;2023-02-23T03:30:18;100129.09;;;-12.80;69.72
28510;BME280;15723;55.684;37.928;2023-02-23T03:33:08;100133.72;;;-13.00;69.90
28510;BME280;15723;55.684;37.928;2023-02-23T03:35:56;100144.91;;;-13.03;69.76
28510;BME280;15723;55.684;37.928;2023-02-23T03:39:09;100142.34;;;-13.01;69.98
28510;BME280;15723;55.684;37.928;2023-02-23T03:41:49;100150.56;;;-12.90;69.92
28510;BME280;15723;55.684;37.928;2023-02-23T03:44:37;100152.94;;;-12.98;69.66
28510;BME280;15723;55.684;37.928;2023-02-23T03:47:24;100150.56;;;-12.90;68.98
28510;BME280;15723;55.684;37.928;2023-02-23T03:50:11;100144.91;;;-13.03;69.34
28510;BME280;15723;55.684;37.928;2023-02-23T03:52:58;100154.59;;;-12.73;68.81
28510;BME280;15723;55.684;37.928;2023-02-23T03:55:46;100157.28;;;-12.99;69.10
28510;BME280;15723;55.684;37.928;2023-02-23T03:58:35;100161.13;;;-12.87;69.30
28510;BME280;15723;55.684;37.928;2023-02-23T04:01:21;100162.84;;;-13.13;69.25
28510;BME280;15723;55.684;37.928;2023-02-23T04:04:07;100161.09;;;-13.14;69.27
28510;BME280;15723;55.684;37.928;2023-02-23T04:06:54;100162.69;;;-12.92;68.92
28510;BME280;15723;55.684;37.928;2023-02-23T04:09:39;100162.47;;;-13.00;68.78
28510;BME280;15723;55.684;37.928;2023-02-23T04:15:12;100163.09;;;-12.80;68.06
28510;BME280;15723;55.684;37.928;2023-02-23T04:17:40;100165.25;;;-12.67;68.50
28510;BME280;15723;55.684;37.928;2023-02-23T04:20:08;100160.03;;;-12.94;67.92
28510;BME280;15723;55.684;37.928;2023-02-23T04:22:35;100161.38;;;-13.05;68.23
28510;BME280;15723;55.684;37.928;2023-02-23T04:25:01;100162.69;;;-12.92;67.80
28510;BME280;15723;55.684;37.928;2023-02-23T04:27:28;100165.94;;;-13.27;68.72
28510;BME280;15723;55.684;37.928;2023-02-23T04:29:54;100166.78;;;-13.01;68.57
28510;BME280;15723;55.684;37.928;2023-02-23T04:32:20;100158.41;;;-13.16;68.69
28510;BME280;15723;55.684;37.928;2023-02-23T04:34:46;100174.63;;;-13.01;68.37
28510;BME280;15723;55.684;37.928;2023-02-23T04:37:12;100178.25;;;-13.22;68.44
28510;BME280;15723;55.684;37.928;2023-02-23T04:39:38;100182.25;;;-13.34;68.81
28510;BME280;15723;55.684;37.928;2023-02-23T04:42:04;100181.97;;;-13.14;68.65
28510;BME280;15723;55.684;37.928;2023-02-23T04:44:30;100191.13;;;-13.02;68.82
28510;BME280;15723;55.684;37.928;2023-02-23T04:46:56;100199.50;;;-13.12;68.86
28510;BME280;15723;55.684;37.928;2023-02-23T04:49:22;100196.81;;;-12.88;68.17
28510;BME280;15723;55.684;37.928;2023-02-23T04:51:48;100197.53;;;-12.67;67.64
28510;BME280;15723;55.684;37.928;2023-02-23T04:54:14;100189.72;;;-12.65;66.98
28510;BME280;15723;55.684;37.928;2023-02-23T04:56:40;100192.72;;;-12.54;66.37
28510;BME280;15723;55.684;37.928;2023-02-23T04:59:06;100191.28;;;-12.16;65.06
28510;BME280;15723;55.684;37.928;2023-02-23T05:01:32;100185.72;;;-11.98;64.68
28510;BME280;15723;55.684;37.928;2023-02-23T05:03:58;100172.94;;;-11.56;63.64
28510;BME280;15723;55.684;37.928;2023-02-23T05:06:29;100173.28;;;-11.13;62.43
28510;BME280;15723;55.684;37.928;2023-02-23T05:08:55;100186.34;;;-11.14;61.49
28510;BME280;15723;55.684;37.928;2023-02-23T05:11:21;100192.94;;;-10.95;61.96
28510;BME280;15723;55.684;37.928;2023-02-23T05:13:47;100185.00;;;-10.98;60.98
28510;BME280;15723;55.684;37.928;2023-02-23T05:16:13;100195.88;;;-10.47;59.55
28510;BME280;15723;55.684;37.928;2023-02-23T05:18:39;100196.53;;;-10.20;58.99
28510;BME280;15723;55.684;37.928;2023-02-23T05:21:06;100191.25;;;-9.81;58.81
28510;BME280;15723;55.684;37.928;2023-02-23T05:23:32;100193.00;;;-8.94;56.58
28510;BME280;15723;55.684;37.928;2023-02-23T05:26:00;100195.81;;;-9.30;55.19
28510;BME280;15723;55.684;37.928;2023-02-23T05:28:26;100194.47;;;-9.09;56.04
28510;BME280;15723;55.684;37.928;2023-02-23T05:30:52;100191.88;;;-8.57;54.54
28510;BME280;15723;55.684;37.928;2023-02-23T05:33:18;100192.47;;;-7.57;53.05
28510;BME280;15723;55.684;37.928;2023-02-23T05:35:47;100196.16;;;-8.09;53.23
28510;BME280;15723;55.684;37.928;2023-02-23T05:38:13;100186.13;;;-7.72;51.92
28510;BME280;15723;55.684;37.928;2023-02-23T05:40:39;100191.50;;;-7.63;51.94
28510;BME280;15723;55.684;37.928;2023-02-23T05:43:05;100193.25;;;-7.64;51.14
28510;BME280;15723;55.684;37.928;2023-02-23T05:45:30;100193.00;;;-8.42;53.34
28510;BME280;15723;55.684;37.928;2023-02-23T05:47:58;100192.81;;;-7.29;50.47
28510;BME280;15723;55.684;37.928;2023-02-23T05:50:24;100188.06;;;-7.58;51.58
28510;BME280;15723;55.684;37.928;2023-02-23T05:52:51;100188.47;;;-7.24;50.66
28510;BME280;15723;55.684;37.928;2023-02-23T05:55:17;100188.53;;;-7.18;50.35
28510;BME280;15723;55.684;37.928;2023-02-23T05:57:43;100206.00;;;-7.94;52.37
28510;BME280;15723;55.684;37.928;2023-02-23T06:00:10;100200.03;;;-7.11;52.03
28510;BME280;15723;55.684;37.928;2023-02-23T06:02:37;100205.53;;;-7.66;52.15
28510;BME280;15723;55.684;37.928;2023-02-23T06:05:04;100196.00;;;-7.56;50.91
28510;BME280;15723;55.684;37.928;2023-02-23T06:07:30;100203.03;;;-6.79;49.51
28510;BME280;15723;55.684;37.928;2023-02-23T06:09:56;100195.69;;;-7.08;50.99
28510;BME280;15723;55.684;37.928;2023-02-23T06:12:22;100206.97;;;-6.33;48.76
28510;BME280;15723;55.684;37.928;2023-02-23T06:14:48;100198.56;;;-5.73;48.55
28510;BME280;15723;55.684;37.928;2023-02-23T06:17:15;100196.34;;;-4.40;45.86
28510;BME280;15723;55.684;37.928;2023-02-23T06:19:41;100195.44;;;-4.25;46.32
28510;BME280;15723;55.684;37.928;2023-02-23T06:22:07;100207.59;;;-5.29;46.37
28510;BME280;15723;55.684;37.928;2023-02-23T06:24:33;100204.94;;;-5.29;45.51
28510;BME280;15723;55.684;37.928;2023-02-23T06:26:59;100202.31;;;-5.22;45.72
28510;BME280;15723;55.684;37.928;2023-02-23T06:29:25;100195.44;;;-4.07;45.06
28510;BME280;15723;55.684;37.928;2023-02-23T06:31:51;100203.41;;;-4.21;44.34
28510;BME280;15723;55.684;37.928;2023-02-23T06:34:17;100203.13;;;-5.44;46.11
28510;BME280;15723;55.684;37.928;2023-02-23T06:36:43;100194.44;;;-3.53;44.36
28510;BME280;15723;55.684;37.928;2023-02-23T06:39:10;100200.72;;;-4.53;45.31
28510;BME280;15723;55.684;37.928;2023-02-23T06:41:36;100194.78;;;-2.42;41.86
28510;BME280;15723;55.684;37.928;2023-02-23T06:44:02;100208.59;;;-4.89;46.66
28510;BME280;15723;55.684;37.928;2023-02-23T06:46:28;100209.38;;;-5.24;45.63
28510;BME280;15723;55.684;37.928;2023-02-23T06:48:57;100209.59;;;-4.38;44.97
28510;BME280;15723;55.684;37.928;2023-02-23T06:51:24;100208.66;;;-4.79;45.22
28510;BME280;15723;55.684;37.928;2023-02-23T06:53:50;100218.25;;;-5.16;46.02
28510;BME280;15723;55.684;37.928;2023-02-23T06:56:19;100232.44;;;-4.89;46.10
28510;BME280;15723;55.684;37.928;2023-02-23T06:58:45;100230.78;;;-4.31;45.11
28510;BME280;15723;55.684;37.928;2023-02-23T07:01:12;100232.53;;;-4.50;44.99
28510;BME280;15723;55.684;37.928;2023-02-23T07:03:38;100232.56;;;-4.37;45.85
28510;BME280;15723;55.684;37.928;2023-02-23T07:06:04;100232.44;;;-4.88;46.49
28510;BME280;15723;55.684;37.928;2023-02-23T07:08:31;100235.19;;;-4.15;44.67
28510;BME280;15723;55.684;37.928;2023-02-23T07:11:04;100232.53;;;-3.80;43.12
28510;BME280;15723;55.684;37.928;2023-02-23T07:13:30;100232.47;;;-3.44;42.95
28510;BME280;15723;55.684;37.928;2023-02-23T07:15:55;100233.19;;;-2.95;42.98
28510;BME280;15723;55.684;37.928;2023-02-23T07:18:22;100231.13;;;-2.44;41.27
28510;BME280;15723;55.684;37.928;2023-02-23T07:20:48;100228.63;;;-2.72;41.71
28510;BME280;15723;55.684;37.928;2023-02-23T07:23:16;100220.91;;;-0.40;39.00
28510;BME280;15723;55.684;37.928;2023-02-23T07:25:42;100228.78;;;-1.74;40.37
28510;BME280;15723;55.684;37.928;2023-02-23T07:28:09;100219.06;;;-0.34;37.69
28510;BME280;15723;55.684;37.928;2023-02-23T07:30:38;100218.53;;;-1.29;38.93
28510;BME280;15723;55.684;37.928;2023-02-23T07:33:04;100230.50;;;-0.90;39.10
28510;BME280;15723;55.684;37.928;2023-02-23T07:35:30;100226.13;;;-0.31;38.72
28510;BME280;15723;55.684;37.928;2023-02-23T07:37:56;100236.69;;;-1.68;39.72
28510;BME280;15723;55.684;37.928;2023-02-23T07:40:23;100238.47;;;-0.88;39.75
28510;BME280;15723;55.684;37.928;2023-02-23T07:42:50;100242.66;;;-2.45;41.02
28510;BME280;15723;55.684;37.928;2023-02-23T07:45:16;100251.91;;;-3.42;43.86
28510;BME280;15723;55.684;37.928;2023-02-23T07:47:42;100249.03;;;-2.80;42.85
28510;BME280;15723;55.684;37.928;2023-02-23T07:50:09;100246.16;;;-1.38;39.81
28510;BME280;15723;55.684;37.928;2023-02-23T07:52:39;100246.28;;;-2.57;42.30
28510;BME280;15723;55.684;37.928;2023-02-23T07:55:06;100249.94;;;-2.81;43.08
28510;BME280;15723;55.684;37.928;2023-02-23T07:57:32;100250.22;;;-1.94;42.25
28510;BME280;15723;55.684;37.928;2023-02-23T07:59:59;100247.69;;;-1.17;41.34
28510;BME280;15723;55.684;37.928;2023-02-23T08:02:25;100254.97;;;-2.34;41.86
28510;BME280;15723;55.684;37.928;2023-02-23T08:04:53;100240.97;;;-0.76;40.16
28510;BME280;15723;55.684;37.928;2023-02-23T08:07:20;100239.75;;;0.06;37.68
28510;BME280;15723;55.684;37.928;2023-02-23T08:09:46;100247.00;;;-0.60;38.87
28510;BME280;15723;55.684;37.928;2023-02-23T08:12:12;100254.00;;;-1.24;40.42
28510;BME280;15723;55.684;37.928;2023-02-23T08:14:41;100253.19;;;-1.32;40.22
28510;BME280;15723;55.684;37.928;2023-02-23T08:17:08;100243.28;;;0.08;37.83
28510;BME280;15723;55.684;37.928;2023-02-23T08:19:34;100224.44;;;1.51;35.86
28510;BME280;15723;55.684;37.928;2023-02-23T08:22:02;100233.75;;;-0.08;38.30
28510;BME280;15723;55.684;37.928;2023-02-23T08:24:28;100228.47;;;0.87;37.15
28510;BME280;15723;55.684;37.928;2023-02-23T08:26:56;100230.72;;;1.89;35.28
28510;BME280;15723;55.684;37.928;2023-02-23T08:29:23;100233.16;;;0.27;37.07
28510;BME280;15723;55.684;37.928;2023-02-23T08:31:49;100236.53;;;-0.16;37.80
28510;BME280;15723;55.684;37.928;2023-02-23T08:34:17;100223.25;;;2.37;35.32
28510;BME280;15723;55.684;37.928;2023-02-23T08:36:44;100227.72;;;-0.21;37.77
28510;BME280;15723;55.684;37.928;2023-02-23T08:39:11;100224.19;;;-0.21;37.68
28510;BME280;15723;55.684;37.928;2023-02-23T08:41:38;100230.34;;;-0.18;38.31
28510;BME280;15723;55.684;37.928;2023-02-23T08:44:04;100233.81;;;-0.71;39.42
28510;BME280;15723;55.684;37.928;2023-02-23T08:46:31;100250.38;;;-2.12;41.31
28510;BME280;15723;55.684;37.928;2023-02-23T08:48:57;100238.03;;;-1.27;40.71
28510;BME280;15723;55.684;37.928;2023-02-23T08:51:24;100240.06;;;-2.61;42.99
28510;BME280;15723;55.684;37.928;2023-02-23T08:53:50;100247.16;;;-2.55;43.65
28510;BME280;15723;55.684;37.928;2023-02-23T08:56:16;100251.09;;;-3.84;45.35
28510;BME280;15723;55.684;37.928;2023-02-23T08:58:43;100244.75;;;-3.15;45.24
28510;BME280;15723;55.684;37.928;2023-02-23T09:01:17;100259.00;;;-3.40;45.25
28510;BME280;15723;55.684;37.928;2023-02-23T09:03:44;100259.91;;;-3.46;45.52
28510;BME280;15723;55.684;37.928;2023-02-23T09:06:13;100260.75;;;-4.67;48.59
28510;BME280;15723;55.684;37.928;2023-02-23T09:08:40;100267.00;;;-3.75;47.34
28510;BME280;15723;55.684;37.928;2023-02-23T09:11:06;100257.25;;;-4.58;49.41
28510;BME280;15723;55.684;37.928;2023-02-23T09:13:33;100262.53;;;-4.60;49.16
28510;BME280;15723;55.684;37.928;2023-02-23T09:15:59;100262.41;;;-5.03;49.02
28510;BME280;15723;55.684;37.928;2023-02-23T09:18:25;100257.16;;;-4.87;48.83
28510;BME280;15723;55.684;37.928;2023-02-23T09:20:55;100245.63;;;-5.03;49.61
28510;BME280;15723;55.684;37.928;2023-02-23T09:23:22;100255.44;;;-4.73;49.95
28510;BME280;15723;55.684;37.928;2023-02-23T09:25:49;100260.47;;;-5.40;51.27
28510;BME280;15723;55.684;37.928;2023-02-23T09:28:17;100258.63;;;-5.55;51.42
28510;BME280;15723;55.684;37.928;2023-02-23T09:30:45;100262.28;;;-5.24;49.99
28510;BME280;15723;55.684;37.928;2023-02-23T09:33:12;100257.16;;;-4.87;49.11
28510;BME280;15723;55.684;37.928;2023-02-23T09:35:38;100257.22;;;-4.78;49.64
28510;BME280;15723;55.684;37.928;2023-02-23T09:38:06;100258.03;;;-4.93;49.83
28510;BME280;15723;55.684;37.928;2023-02-23T09:40:47;100259.59;;;-5.35;50.77
28510;BME280;15723;55.684;37.928;2023-02-23T09:48:46;100260.44;;;-5.43;51.01
28510;BME280;15723;55.684;37.928;2023-02-23T09:51:17;100249.16;;;-5.03;50.11
28510;BME280;15723;55.684;37.928;2023-02-23T09:53:52;100244.50;;;-5.55;51.41
28510;BME280;15723;55.684;37.928;2023-02-23T09:56:40;100244.59;;;-5.40;51.02
28510;BME280;15723;55.684;37.928;2023-02-23T09:59:14;100243.97;;;-4.78;50.60
28510;BME280;15723;55.684;37.928;2023-02-23T10:07:15;100240.50;;;-4.44;48.45
28510;BME280;15723;55.684;37.928;2023-02-23T10:12:21;100235.94;;;-4.96;50.40
28510;BME280;15723;55.684;37.928;2023-02-23T10:15:09;100225.47;;;-3.93;47.92
28510;BME280;15723;55.684;37.928;2023-02-23T10:20:45;100221.03;;;-4.58;49.18
28510;BME280;15723;55.684;37.928;2023-02-23T10:23:20;100217.50;;;-3.78;47.67
28510;BME280;15723;55.684;37.928;2023-02-23T10:25:49;100218.44;;;-4.43;48.50
28510;BME280;15723;55.684;37.928;2023-02-23T10:28:19;100223.56;;;-5.04;49.99
28510;BME280;15723;55.684;37.928;2023-02-23T10:30:48;100227.00;;;-5.24;50.48
28510;BME280;15723;55.684;37.928;2023-02-23T10:33:21;100226.03;;;-5.49;49.95
28510;BME280;15723;55.684;37.928;2023-02-23T10:35:56;100220.78;;;-5.37;50.66
28510;BME280;15723;55.684;37.928;2023-02-23T10:38:22;100228.63;;;-5.57;51.15
28510;BME280;15723;55.684;37.928;2023-02-23T10:40:53;100218.38;;;-4.65;49.07
28510;BME280;15723;55.684;37.928;2023-02-23T10:43:20;100220.06;;;-4.87;49.08
28510;BME280;15723;55.684;37.928;2023-02-23T10:45:48;100224.41;;;-5.20;49.30
28510;BME280;15723;55.684;37.928;2023-02-23T10:48:23;100213.97;;;-4.54;48.10
28510;BME280;15723;55.684;37.928;2023-02-23T10:50:53;100213.75;;;-5.29;48.51
28510;BME280;15723;55.684;37.928;2023-02-23T10:53:25;100213.72;;;-5.40;48.85
28510;BME280;15723;55.684;37.928;2023-02-23T10:56:08;100221.53;;;-5.59;49.57
28510;BME280;15723;55.684;37.928;2023-02-23T10:58:58;100220.75;;;-5.45;49.30
28510;BME280;15723;55.684;37.928;2023-02-23T11:04:25;100224.16;;;-5.67;49.24
28510;BME280;15723;55.684;37.928;2023-02-23T11:07:14;100230.47;;;-5.39;48.89
28510;BME280;15723;55.684;37.928;2023-02-23T11:09:41;100219.94;;;-5.24;48.95
28510;BME280;15723;55.684;37.928;2023-02-23T11:12:17;100228.69;;;-5.45;49.28
28510;BME280;15723;55.684;37.928;2023-02-23T11:14:48;100222.66;;;-5.16;48.69
28510;BME280;15723;55.684;37.928;2023-02-23T11:17:25;100219.03;;;-5.33;48.56
28510;BME280;15723;55.684;37.928;2023-02-23T11:19:57;100223.50;;;-5.22;48.59
28510;BME280;15723;55.684;37.928;2023-02-23T11:22:30;100221.63;;;-5.50;48.40
28510;BME280;15723;55.684;37.928;2023-02-23T11:24:56;100212.13;;;-4.92;47.62
28510;BME280;15723;55.684;37.928;2023-02-23T11:27:25;100215.50;;;-5.34;47.58
28510;BME280;15723;55.684;37.928;2023-02-23T11:29:54;100212.78;;;-5.55;48.38
28510;BME280;15723;55.684;37.928;2023-02-23T11:32:31;100210.94;;;-5.62;48.94
28510;BME280;15723;55.684;37.928;2023-02-23T11:37:47;100210.34;;;-4.93;48.10
28510;BME280;15723;55.684;37.928;2023-02-23T11:40:39;100211.97;;;-5.33;47.40
28510;BME280;15723;55.684;37.928;2023-02-23T11:43:14;100207.56;;;-5.36;47.05
28510;BME280;15723;55.684;37.928;2023-02-23T11:45:51;100204.00;;;-5.41;47.38
28510;BME280;15723;55.684;37.928;2023-02-23T11:48:51;100216.41;;;-5.29;47.46
28510;BME280;15723;55.684;37.928;2023-02-23T11:51:35;100215.47;;;-5.42;46.97
28510;BME280;15723;55.684;37.928;2023-02-23T11:54:03;100206.72;;;-5.21;47.06
28510;BME280;15723;55.684;37.928;2023-02-23T11:56:32;100208.56;;;-5.03;46.85
28510;BME280;15723;55.684;37.928;2023-02-23T11:59:03;100207.66;;;-5.19;46.66
28510;BME280;15723;55.684;37.928;2023-02-23T12:01:50;100210.34;;;-5.07;46.82
28510;BME280;15723;55.684;37.928;2023-02-23T12:04:36;100205.00;;;-5.20;47.03
28510;BME280;15723;55.684;37.928;2023-02-23T12:07:24;100202.38;;;-5.08;46.94
28510;BME280;15723;55.684;37.928;2023-02-23T12:10:22;100209.31;;;-5.41;47.45
28510;BME280;15723;55.684;37.928;2023-02-23T12:16:27;100204.91;;;-5.34;46.94
28510;BME280;15723;55.684;37.928;2023-02-23T12:19:19;100206.69;;;-5.31;46.83
28510;BME280;15723;55.684;37.928;2023-02-23T12:22:02;100201.53;;;-4.96;46.16
28510;BME280;15723;55.684;37.928;2023-02-23T12:27:09;100195.41;;;-4.76;46.38
28510;BME280;15723;55.684;37.928;2023-02-23T12:32:40;100193.66;;;-4.63;45.73
28510;BME280;15723;55.684;37.928;2023-02-23T12:35:41;100193.47;;;-5.25;47.25
28510;BME280;15723;55.684;37.928;2023-02-23T12:38:32;100199.72;;;-5.10;47.14
28510;BME280;15723;55.684;37.928;2023-02-23T12:41:13;100203.16;;;-5.32;47.61
28510;BME280;15723;55.684;37.928;2023-02-23T12:43:54;100208.47;;;-5.26;47.32
28510;BME280;15723;55.684;37.928;2023-02-23T12:46:26;100204.94;;;-5.32;47.92
28510;BME280;15723;55.684;37.928;2023-02-23T12:51:53;100194.56;;;-4.39;46.70
28510;BME280;15723;55.684;37.928;2023-02-23T12:54:20;100195.41;;;-4.68;46.87
28510;BME280;15723;55.684;37.928;2023-02-23T12:57:14;100191.88;;;-4.62;47.85
28510;BME280;15723;55.684;37.928;2023-02-23T13:06:10;100209.59;;;-4.25;48.40
28510;BME280;15723;55.684;37.928;2023-02-23T13:08:57;100204.22;;;-4.81;48.15
28510;BME280;15723;55.684;37.928;2023-02-23T13:14:37;100205.94;;;-5.01;49.08
28510;BME280;15723;55.684;37.928;2023-02-23T13:19:42;100205.78;;;-5.43;49.00
28510;BME280;15723;55.684;37.928;2023-02-23T13:22:31;100206.66;;;-5.41;49.32
28510;BME280;15723;55.684;37.928;2023-02-23T13:25:07;100203.16;;;-5.37;49.36
28510;BME280;15723;55.684;37.928;2023-02-23T13:27:44;100204.91;;;-5.40;49.57
28510;BME280;15723;55.684;37.928;2023-02-23T13:30:12;100204.00;;;-5.42;49.51
28510;BME280;15723;55.684;37.928;2023-02-23T13:32:41;100198.88;;;-4.99;48.87
28510;BME280;15723;55.684;37.928;2023-02-23T13:35:14;100198.72;;;-5.39;49.24
28510;BME280;15723;55.684;37.928;2023-02-23T13:40:34;100205.06;;;-4.94;48.51
28510;BME280;15723;55.684;37.928;2023-02-23T13:43:28;100192.78;;;-4.27;46.75
28510;BME280;15723;55.684;37.928;2023-02-23T13:49:44;100212.25;;;-4.32;47.28
28510;BME280;15723;55.684;37.928;2023-02-23T13:54:59;100217.38;;;-5.10;49.42
28510;BME280;15723;55.684;37.928;2023-02-23T13:57:31;100210.03;;;-5.68;50.25
28510;BME280;15723;55.684;37.928;2023-02-23T13:59:58;100211.84;;;-5.59;50.55
28510;BME280;15723;55.684;37.928;2023-02-23T14:02:38;100201.47;;;-5.18;49.61
28510;BME280;15723;55.684;37.928;2023-02-23T14:05:27;100205.00;;;-5.14;48.70
28510;BME280;15723;55.684;37.928;2023-02-23T14:07:59;100199.75;;;-4.94;48.80
28510;BME280;15723;55.684;37.928;2023-02-23T14:10:27;100197.09;;;-5.07;49.23
28510;BME280;15723;55.684;37.928;2023-02-23T14:13:07;100197.94;;;-5.15;49.78
28510;BME280;15723;55.684;37.928;2023-02-23T14:16:06;100202.47;;;-4.79;49.31
28510;BME280;15723;55.684;37.928;2023-02-23T14:18:34;100204.06;;;-5.25;50.89
28510;BME280;15723;55.684;37.928;2023-02-23T14:22:03;100206.66;;;-5.41;50.39
28510;BME280;15723;55.684;37.928;2023-02-23T14:24:22;100207.34;;;-5.77;51.60
28510;BME280;15723;55.684;37.928;2023-02-23T14:27:15;100208.38;;;-5.50;51.27
28510;BME280;15723;55.684;37.928;2023-02-23T14:32:47;100199.50;;;-5.61;51.24
28510;BME280;15723;55.684;37.928;2023-02-23T14:38:22;100209.00;;;-5.97;52.21
28510;BME280;15723;55.684;37.928;2023-02-23T14:40:54;100195.88;;;-5.77;51.62